Home > Products > Valid Products > MTR

000
SAUS44 KLZK 310954
MTRMWT
METAR KMWT 310953Z AUTO 28004KT 10SM CLR 08/06 A3009 RMK AO2 SLP187
T00830061





000
SAUS44 KLZK 310854
MTRMWT
METAR KMWT 310853Z AUTO 00000KT 10SM CLR 08/07 A3008 RMK AO2 SLP185
T00830067 53005





000
SAUS44 KLZK 310754
MTRMWT
METAR KMWT 310753Z AUTO 28003KT 10SM CLR 08/07 A3008 RMK AO2 SLP182
T00830072





000
SAUS44 KLZK 310654
MTRMWT
METAR KMWT 310653Z AUTO 30004KT 10SM CLR 09/08 A3007 RMK AO2 SLP179
T00940078





000
SAUS44 KLZK 310554
MTRMWT
METAR KMWT 310553Z AUTO 00000KT 10SM CLR 09/08 A3007 RMK AO2 SLP179
T00940078 10144 20089 402280028 51005





000
SAUS44 KLZK 310454
MTRMWT
METAR KMWT 310453Z AUTO 29003KT 10SM CLR 09/08 A3007 RMK AO2 SLP180
T00940083





000
SAUS44 KLZK 310454
MTRMWT
METAR KMWT 310453Z AUTO 29003KT 10SM CLR 09/08 A3007 RMK AO2 SLP180
T00940083





000
SAUS44 KLZK 310355
MTRMWT
METAR KMWT 310353Z AUTO 00000KT 10SM CLR 10/09 A3007 RMK AO2 SLP182
T01000089





000
SAUS44 KLZK 310355
MTRMWT
METAR KMWT 310353Z AUTO 00000KT 10SM CLR 10/09 A3007 RMK AO2 SLP182
T01000089





000
SAUS44 KLZK 310255
MTRMWT
METAR KMWT 310253Z AUTO 00000KT 10SM CLR 11/09 A3005 RMK AO2 SLP177
T01060094 53006





000
SAUS44 KLZK 310155
MTRMWT
METAR KMWT 310153Z AUTO 00000KT 10SM CLR 11/09 A3005 RMK AO2 SLP178
T01110094





000
SAUS44 KLZK 310055
MTRMWT
METAR KMWT 310053Z AUTO 00000KT 10SM CLR 12/09 A3004 RMK AO2 SLP176
T01220089





000
SAUS44 KLZK 302354
MTRMWT
METAR KMWT 302353Z AUTO 00000KT 10SM CLR 14/09 A3003 RMK AO2 SLP173
T01440094 10228 20144 53001





000
SAUS44 KLZK 302254
MTRMWT
METAR KMWT 302253Z AUTO 00000KT 10SM CLR 18/08 A3003 RMK AO2 SLP169
T01780083





000
SAUS44 KLZK 302154
MTRMWT
METAR KMWT 302153Z AUTO VRB03KT 10SM CLR 21/07 A3003 RMK AO2 SLP167
T02110067





000
SAUS44 KLZK 302154
MTRMWT
METAR KMWT 302153Z AUTO VRB03KT 10SM CLR 21/07 A3003 RMK AO2 SLP167
T02110067





000
SAUS44 KLZK 302054
MTRMWT
METAR KMWT 302053Z AUTO 00000KT 10SM SCT070 BKN085 21/06 A3003 RMK
AO2 SLP168 T02110056 56020





000
SAUS44 KLZK 301954
MTRMWT
METAR KMWT 301953Z AUTO 23007KT 180V270 10SM FEW080 22/06 A3004 RMK
AO2 SLP172 T02220056





000
SAUS44 KLZK 301854
MTRMWT
METAR KMWT 301853Z AUTO 22007KT 170V270 10SM CLR 22/06 A3007 RMK AO2
SLP181 T02170056





000
SAUS44 KLZK 301754
MTRMWT
METAR KMWT 301753Z AUTO 26006KT 10SM CLR 22/05 A3009 RMK AO2 SLP188
T02170050 10222 20028 $





000
SAUS44 KLZK 301655
MTRMWT
METAR KMWT 301654Z AUTO VRB03KT 20/08 A3012 RMK AO2 SLP200 T02000083
$





000
SAUS44 KLZK 301655
MTRMWT
METAR KMWT 301654Z AUTO VRB03KT 20/08 A3012 RMK AO2 SLP200 T02000083
$





000
SAUS44 KLZK 301554
MTRMWT
METAR KMWT 301553Z AUTO 00000KT 10SM CLR 14/08 A3014 RMK AO2 SLP208
T01440083





000
SAUS44 KLZK 301454
MTRMWT
METAR KMWT 301453Z AUTO 00000KT 10SM CLR 11/08 A3015 RMK AO2 SLP213
T01110083 52004





000
SAUS44 KLZK 301354
MTRMWT
METAR KMWT 301353Z AUTO 00000KT 10SM CLR 07/06 A3015 RMK AO2 SLP214
T00670061





000
SAUS44 KLZK 301254
MTRMWT
METAR KMWT 301253Z AUTO 00000KT 10SM FEW001 03/03 A3014 RMK AO2
SLP211 T00330028





000
SAUS44 KLZK 301246
MTRMWT
SPECI KMWT 301244Z AUTO 00000KT 2SM BR FEW001 03/02 A3014 RMK AO2
T00330022





000
SAUS44 KLZK 301237
MTRMWT
SPECI KMWT 301236Z AUTO 00000KT 1SM BR VV001 03/02 A3013 RMK AO2
T00280022





000
SAUS44 KLZK 301234
MTRMWT
SPECI KMWT 301233Z AUTO 00000KT 2SM BR FEW002 03/03 A3013 RMK AO2
T00330028





000
SAUS44 KLZK 301154
MTRMWT
METAR KMWT 301153Z AUTO 00000KT 10SM CLR 04/03 A3013 RMK AO2 SLP207
T00390033 10067 20039 56004





000
SAUS44 KLZK 301138
MTRMWT
SPECI KMWT 301137Z AUTO 00000KT 3SM BR CLR 04/03 A3013 RMK AO2
T00390028





000
SAUS44 KLZK 301130
MTRMWT
SPECI KMWT 301128Z AUTO 00000KT 2SM BR CLR 04/03 A3013 RMK AO2 VIS
1V5 T00440033





000
SAUS44 KLZK 301054
MTRMWT
METAR KMWT 301053Z AUTO 00000KT 10SM CLR 04/03 A3013 RMK AO2 SLP205
T00440033





000
SAUS44 KLZK 301054
MTRMWT
METAR KMWT 301053Z AUTO 00000KT 10SM CLR 04/03 A3013 RMK AO2 SLP205
T00440033





000
SAUS44 KLZK 300954
MTRMWT
METAR KMWT 300953Z AUTO 00000KT 7SM CLR 05/04 A3013 RMK AO2 SLP202
T00500039





000
SAUS44 KLZK 300854
MTRMWT
METAR KMWT 300853Z AUTO 00000KT 10SM CLR 05/04 A3014 RMK AO2 SLP206
T00500044 53001





000
SAUS44 KLZK 300754
MTRMWT
METAR KMWT 300753Z AUTO 00000KT 10SM CLR 06/04 A3013 RMK AO2 SLP202
T00560044





000
SAUS44 KLZK 300654
MTRMWT
METAR KMWT 300653Z AUTO 00000KT 10SM CLR 06/05 A3013 RMK AO2 SLP202
T00610050





000
SAUS44 KLZK 300554
MTRMWT
METAR KMWT 300553Z AUTO 00000KT 10SM CLR 07/06 A3014 RMK AO2 SLP205
T00670056 10122 20067 402280067 50000





000
SAUS44 KLZK 300454
MTRMWT
METAR KMWT 300453Z AUTO 00000KT 10SM CLR 07/06 A3015 RMK AO2 SLP209
T00720061





000
SAUS44 KLZK 300454
MTRMWT
METAR KMWT 300453Z AUTO 00000KT 10SM CLR 07/06 A3015 RMK AO2 SLP209
T00720061





000
SAUS44 KLZK 300354
MTRMWT
METAR KMWT 300353Z AUTO 00000KT 10SM CLR 08/07 A3014 RMK AO2 SLP207
T00830072





000
SAUS44 KLZK 300254
MTRMWT
METAR KMWT 300253Z AUTO 00000KT 10SM CLR 09/07 A3014 RMK AO2 SLP207
T00890072 53001





000
SAUS44 KLZK 300154
MTRMWT
METAR KMWT 300153Z AUTO 00000KT 10SM CLR 10/09 A3014 RMK AO2 SLP209
T01000089





000
SAUS44 KLZK 300054
MTRMWT
METAR KMWT 300053Z AUTO 00000KT 10SM CLR 11/09 A3014 RMK AO2 SLP209
T01110094





000
SAUS44 KLZK 292354
MTRMWT
METAR KMWT 292353Z AUTO 00000KT 10SM CLR 12/09 A3014 RMK AO2 SLP208
T01220094 10228 20122 58002





000
SAUS44 KLZK 292254
MTRMWT
METAR KMWT 292253Z AUTO 00000KT 10SM CLR 17/08 A3014 RMK AO2 SLP206
T01670078





000
SAUS44 KLZK 292254
MTRMWT
METAR KMWT 292253Z AUTO 00000KT 10SM CLR 17/08 A3014 RMK AO2 SLP206
T01670078





000
SAUS44 KLZK 292154
MTRMWT
METAR KMWT 292153Z AUTO 00000KT 10SM CLR 20/04 A3014 RMK AO2 SLP206
T02000044





000
SAUS44 KLZK 292054
MTRMWT
METAR KMWT 292053Z AUTO VRB03KT 10SM CLR 22/M01 A3014 RMK AO2 SLP204
T02221006 56020





000
SAUS44 KLZK 291954
MTRMWT
METAR KMWT 291953Z AUTO 00000KT 10SM CLR 21/06 A3015 RMK AO2 SLP207
T02110056





000
SAUS44 KLZK 291854
MTRMWT
METAR KMWT 291853Z AUTO VRB03KT 10SM CLR 21/07 A3018 RMK AO2 SLP216
T02060067





000
SAUS44 KLZK 291754
MTRMWT
METAR KMWT 291753Z AUTO 00000KT 10SM CLR 20/06 A3020 RMK AO2 SLP224
T02000056 10200 20072 58003





000
SAUS44 KLZK 291654
MTRMWT
METAR KMWT 291653Z AUTO 00000KT 10SM CLR 19/09 A3022 RMK AO2 SLP228
T01940094





000
SAUS44 KLZK 291554
MTRMWT
METAR KMWT 291553Z AUTO 00000KT 10SM CLR 16/09 A3022 RMK AO2 SLP231
T01610094





000
SAUS44 KLZK 291454
MTRMWT
METAR KMWT 291453Z AUTO 00000KT 10SM CLR 13/12 A3021 RMK AO2 SLP230
T01330117 51009





000
SAUS44 KLZK 291355
MTRMWT
METAR KMWT 291353Z AUTO 00000KT 8SM SCT002 09/09 A3021 RMK AO2
SLP229 T00890089





000
SAUS44 KLZK 291346
MTRMWT
SPECI KMWT 291345Z AUTO 00000KT 2SM BR BKN002 08/08 A3020 RMK AO2
T00830083





000
SAUS44 KLZK 291332
MTRMWT
SPECI KMWT 291330Z AUTO 00000KT 3/4SM BR VV002 08/08 A3020 RMK AO2
T00830078





000
SAUS44 KLZK 291323
MTRMWT
SPECI KMWT 291322Z AUTO 00000KT 1/4SM FG VV002 08/07 A3019 RMK AO2
T00780072





000
SAUS44 KLZK 291316
MTRMWT
SPECI KMWT 291314Z AUTO 00000KT 1/2SM FG VV001 07/07 A3019 RMK AO2
T00720067





000
SAUS44 KLZK 291311
MTRMWT
SPECI KMWT 291310Z AUTO 00000KT 1 3/4SM BR CLR 07/07 A3019 RMK AO2
VIS 1/2V5 T00720067





000
SAUS44 KLZK 291306
MTRMWT
SPECI KMWT 291304Z AUTO 00000KT 3SM BR CLR 07/07 A3019 RMK AO2
T00720067





000
SAUS44 KLZK 291256
MTRMWT
SPECI KMWT 291255Z AUTO 00000KT 1 3/4SM BR CLR 07/07 A3018 RMK AO2
T00720067





000
SAUS44 KLZK 291254
MTRMWT
METAR KMWT 291253Z AUTO 00000KT 3SM BR CLR 07/07 A3018 RMK AO2
SLP222 T00720067





000
SAUS44 KLZK 291251
MTRMWT
SPECI KMWT 291250Z AUTO 00000KT 1 1/2SM BR CLR 07/07 A3018 RMK AO2





000
SAUS44 KLZK 291235
MTRMWT
SPECI KMWT 291234Z AUTO 00000KT 1/4SM FG CLR 07/06 A3018 RMK AO2
T00720061





000
SAUS44 KLZK 291223
MTRMWT
SPECI KMWT 291222Z AUTO 00000KT 1 1/2SM BR CLR 07/07 A3017 RMK AO2
T00720067





000
SAUS44 KLZK 291220
MTRMWT
SPECI KMWT 291218Z AUTO 00000KT 6SM BR CLR 07/07 A3017 RMK AO2
T00720067





000
SAUS44 KLZK 291211
MTRMWT
SPECI KMWT 291210Z AUTO 00000KT 2SM BR CLR 08/07 A3017 RMK AO2
T00780067





000
SAUS44 KLZK 291204
MTRMWT
SPECI KMWT 291203Z AUTO 00000KT 3/4SM BR CLR 07/07 A3017 RMK AO2
T00720067





000
SAUS44 KLZK 291154
MTRMWT
METAR KMWT 291153Z AUTO 00000KT 2 1/2SM BR CLR 08/07 A3016 RMK AO2
SLP214 70052 T00780067 10128 20078 53010





000
SAUS44 KLZK 291147
MTRMWT
SPECI KMWT 291146Z AUTO 00000KT 1 1/2SM BR FEW002 08/07 A3016 RMK
AO2 VIS 1V2 1/2 T00780067





000
SAUS44 KLZK 291140
MTRMWT
SPECI KMWT 291139Z AUTO 00000KT 1SM BR VV002 08/07 A3016 RMK AO2
T00780067





000
SAUS44 KLZK 291116
MTRMWT
SPECI KMWT 291115Z AUTO 00000KT 1 1/2SM BR SCT002 08/07 A3016 RMK
AO2 T00780072





000
SAUS44 KLZK 291103
MTRMWT
SPECI KMWT 291102Z AUTO 00000KT 1SM BR VV002 08/07 A3015 RMK AO2
T00830072





000
SAUS44 KLZK 291054
MTRMWT
METAR KMWT 291053Z AUTO 00000KT 1 1/2SM BR FEW002 08/08 A3015 RMK
AO2 SLP210 T00830078





000
SAUS44 KLZK 291047
MTRMWT
SPECI KMWT 291045Z AUTO 00000KT 1 1/4SM BR FEW002 08/08 A3015 RMK
AO2 VIS 3/4V3 T00830078





000
SAUS44 KLZK 291047
MTRMWT
SPECI KMWT 291045Z AUTO 00000KT 1 1/4SM BR FEW002 08/08 A3015 RMK
AO2 VIS 3/4V3 T00830078





000
SAUS44 KLZK 290955
MTRMWT
METAR KMWT 290953Z AUTO 00000KT 1/2SM FG VV002 09/08 A3014 RMK AO2
SLP206 T00890083





000
SAUS44 KLZK 290912
MTRMWT
SPECI KMWT 290911Z AUTO 00000KT 1/2SM FG VV002 09/09 A3013 RMK AO2
T00940089





000
SAUS44 KLZK 290855
MTRMWT
METAR KMWT 290853Z AUTO 00000KT 1/2SM FG VV001 10/09 A3013 RMK AO2
SLP202 T01000089 53002





000
SAUS44 KLZK 290844
MTRMWT
SPECI KMWT 290842Z AUTO 00000KT 1/4SM FG VV001 10/09 A3013 RMK AO2
T01000094





000
SAUS44 KLZK 290832
MTRMWT
SPECI KMWT 290831Z AUTO 00000KT 1/2SM FG VV001 10/09 A3013 RMK AO2
T01000094





000
SAUS44 KLZK 290754
MTRMWT
METAR KMWT 290753Z AUTO 00000KT 1/2SM FG VV002 11/10 A3013 RMK AO2
SLP201 T01060100





000
SAUS44 KLZK 290735
MTRMWT
SPECI KMWT 290734Z AUTO 00000KT 1/2SM FG VV002 11/10 A3012 RMK AO2
T01060100





000
SAUS44 KLZK 290728
MTRMWT
SPECI KMWT 290727Z AUTO 00000KT 1/4SM FG VV002 11/10 A3012 RMK AO2
T01110100





000
SAUS44 KLZK 290709
MTRMWT
SPECI KMWT 290708Z AUTO 00000KT 1/2SM FG VV001 11/11 A3012 RMK AO2
T01110106





000
SAUS44 KLZK 290654
MTRMWT
METAR KMWT 290653Z AUTO 00000KT 1/4SM FG VV001 12/11 A3012 RMK AO2
SLP199 T01170106





000
SAUS44 KLZK 290640
MTRMWT
SPECI KMWT 290638Z AUTO 00000KT 1/2SM FG VV001 12/11 A3013 RMK AO2
T01170111





000
SAUS44 KLZK 290635
MTRMWT
SPECI KMWT 290634Z AUTO 00000KT 1/4SM FG VV002 12/11 A3013 RMK AO2
T01170111





000
SAUS44 KLZK 290619
MTRMWT
SPECI KMWT 290618Z AUTO 00000KT 1/2SM FG VV002 12/11 A3013 RMK AO2
T01220111





000
SAUS44 KLZK 290610
MTRMWT
SPECI KMWT 290609Z AUTO 00000KT 1 3/4SM BR BKN002 12/12 A3012 RMK
AO2 VIS 3/4V4 T01220117





000
SAUS44 KLZK 290607
MTRMWT
SPECI KMWT 290606Z AUTO 00000KT 3SM BR BKN002 BKN070 12/12 A3013 RMK
AO2 T01220117





000
SAUS44 KLZK 290604
MTRMWT
SPECI KMWT 290603Z AUTO 00000KT 1 1/2SM BR BKN002 BKN070 12/12 A3013
RMK AO2 VIS 1/2V4 T01220117





000
SAUS44 KLZK 290554
MTRMWT
METAR KMWT 290553Z AUTO 00000KT 3/4SM BR SCT002 BKN070 13/12 A3013
RMK AO2 SLP199 60000 T01280117 10156 20128 402280128 51012





000
SAUS44 KLZK 290547
MTRMWT
SPECI KMWT 290545Z AUTO 00000KT 3/4SM BR SCT002 BKN070 BKN090 13/12
A3012 RMK AO2 T01280117





000
SAUS44 KLZK 290542
MTRMWT
SPECI KMWT 290541Z AUTO 00000KT 2SM BR FEW002 BKN070 BKN090 13/12
A3012 RMK AO2 T01280122





000
SAUS44 KLZK 290454
MTRMWT
METAR KMWT 290453Z AUTO 00000KT 10SM BKN070 BKN085 13/12 A3013 RMK
AO2 SLP198 T01330122





000
SAUS44 KLZK 290454
MTRMWT
METAR KMWT 290453Z AUTO 00000KT 10SM BKN070 BKN085 13/12 A3013 RMK
AO2 SLP198 T01330122





000
SAUS44 KLZK 290354
MTRMWT
METAR KMWT 290353Z AUTO 00000KT 9SM BKN065 BKN090 14/13 A3012 RMK
AO2 SLP194 T01390133





000
SAUS44 KLZK 290254
MTRMWT
METAR KMWT 290253Z AUTO 00000KT 10SM BKN065 OVC080 14/13 A3009 RMK
AO2 SLP185 60000 T01440133 51010





000
SAUS44 KLZK 290154
MTRMWT
METAR KMWT 290153Z AUTO 00000KT 10SM OVC060 15/14 A3008 RMK AO2
SLP184 T01500139





000
SAUS44 KLZK 290054
MTRMWT
METAR KMWT 290053Z AUTO 00000KT 10SM OVC055 15/14 A3008 RMK AO2
RAE2358 SLP180 P0000 T01500144





000
SAUS44 KLZK 282354
MTRMWT
METAR KMWT 282353Z AUTO 00000KT 10SM -RA OVC047 16/14 A3006 RMK AO2
RAB49 SLP174 P0000 60003 T01560144 10183 20150 53005





000
SAUS44 KLZK 282255
MTRMWT
METAR KMWT 282253Z AUTO 34003KT 9SM FEW009 BKN032 OVC041 16/14 A3004
RMK AO2 RAE45 SLP169 P0001 T01560144





000
SAUS44 KLZK 282250
MTRMWT
SPECI KMWT 282249Z AUTO 00000KT 8SM FEW005 SCT025 OVC032 16/14 A3004
RMK AO2 RAE45 P0001





000
SAUS44 KLZK 282237
MTRMWT
SPECI KMWT 282236Z AUTO 00000KT 3SM -RA BR SCT006 BKN025 OVC030
16/14 A3004 RMK AO2 P0001 T01560144





000
SAUS44 KLZK 282223
MTRMWT
SPECI KMWT 282221Z AUTO 00000KT 3SM -RA BR SCT004 BKN009 OVC026
16/15 A3004 RMK AO2 P0001 T01560150





000
SAUS44 KLZK 282154
MTRMWT
METAR KMWT 282153Z AUTO 00000KT 2SM -RA BR BKN006 OVC010 16/14 A3004
RMK AO2 RAB19 SLP167 P0002 T01560144





000
SAUS44 KLZK 282134
MTRMWT
SPECI KMWT 282133Z AUTO 00000KT 1 3/4SM -RA BR BKN009 OVC014 16/15
A3004 RMK AO2 RAB19 P0001 T01610150





000
SAUS44 KLZK 282131
MTRMWT
SPECI KMWT 282130Z AUTO 00000KT 1 3/4SM -RA BR OVC013 16/15 A3004
RMK AO2 RAB19 P0001 T01610150





000
SAUS44 KLZK 282104
MTRMWT
SPECI KMWT 282103Z AUTO 00000KT 4SM BR FEW006 OVC011 16/15 A3004 RMK
AO2 T01610150





000
SAUS44 KLZK 282055
MTRMWT
METAR KMWT 282053Z AUTO 00000KT 2 1/2SM BR BKN007 OVC011 16/15 A3004
RMK AO2 CIG 004V008 SLP166 60000 T01610150 53004





000
SAUS44 KLZK 282051
MTRMWT
SPECI KMWT 282049Z AUTO 00000KT 2 1/2SM BR BKN007 OVC010 16/15 A3004
RMK AO2 CIG 004V010





000
SAUS44 KLZK 282013
MTRMWT
SPECI KMWT 282011Z AUTO VRB03KT 2 1/2SM BR BKN004 BKN008 OVC013
17/16 A3003 RMK AO2 T01670156





000
SAUS44 KLZK 281954
MTRMWT
METAR KMWT 281953Z AUTO 00000KT 1 3/4SM BR OVC004 17/16 A3002 RMK
AO2 SLP161 T01670156





000
SAUS44 KLZK 281918
MTRMWT
SPECI KMWT 281917Z AUTO 00000KT 1 3/4SM BR BKN004 OVC007 17/16 A3003
RMK AO2 CIG 003V006 T01670156





000
SAUS44 KLZK 281909
MTRMWT
SPECI KMWT 281908Z AUTO 00000KT 2SM BR OVC006 17/16 A3003 RMK AO2
CIG 003V009 T01670156





000
SAUS44 KLZK 281854
MTRMWT
METAR KMWT 281853Z AUTO 00000KT 1 3/4SM BR OVC007 17/16 A3003 RMK
AO2 RAB00E08 CIG 002V009 SLP160 P0000 T01670156





000
SAUS44 KLZK 281852
MTRMWT
SPECI KMWT 281851Z AUTO 00000KT 1 3/4SM BR OVC007 17/16 A3002 RMK
AO2 RAB00E08 CIG 002V011 P0000





000
SAUS44 KLZK 281845
MTRMWT
SPECI KMWT 281843Z AUTO VRB03KT 2SM BR BKN005 OVC010 17/16 A3003 RMK
AO2 RAB00E08 CIG 002V007 P0000 T01670156





000
SAUS44 KLZK 281809 COR
MTRMWT
SPECI KMWT 281806Z AUTO VRB04KT 2 1/2SM -RA BR BKN004 OVC020 18/17
A3003 RMK AO2 RAB00 P0000 T01780167





000
SAUS44 KLZK 281801 COR
MTRMWT
SPECI KMWT 281757Z AUTO VRB06KT 3SM BR BKN004 BKN007 OVC020 18/17
A3002 RMK AO2 T01780167





000
SAUS44 KLZK 281754
MTRMWT
METAR KMWT 281753Z AUTO VRB05KT 6SM BR SCT007 BKN014 OVC020 18/17
A3002 RMK AO2 SLP160 60049 T01830172 10200 20183 51004





000
SAUS44 KLZK 281735
MTRMWT
SPECI KMWT 281734Z AUTO 31003KT 8SM FEW008 OVC018 20/18 A3002 RMK
AO2 T02000183





000
SAUS44 KLZK 281654
MTRMWT
METAR KMWT 281653Z AUTO 00000KT 8SM FEW010 OVC015 20/18 A3002 RMK
AO2 SLP159 T02000183





000
SAUS44 KLZK 281654
MTRMWT
METAR KMWT 281653Z AUTO 00000KT 8SM FEW010 OVC015 20/18 A3002 RMK
AO2 SLP159 T02000183





000
SAUS44 KLZK 281555
MTRMWT
METAR KMWT 281553Z AUTO 00000KT 4SM BR FEW003 OVC016 19/18 A3002 RMK
AO2 SLP157 T01940183





000
SAUS44 KLZK 281555
MTRMWT
METAR KMWT 281553Z AUTO 00000KT 4SM BR FEW003 OVC016 19/18 A3002 RMK
AO2 SLP157 T01940183





000
SAUS44 KLZK 281515
MTRMWT
SPECI KMWT 281514Z AUTO 00000KT 2 1/2SM BR SCT020 BKN036 OVC060
19/18 A3001 RMK AO2 T01940183





000
SAUS44 KLZK 281454
MTRMWT
METAR KMWT 281453Z AUTO 00000KT 3SM BR FEW020 BKN038 OVC100 19/18
A3001 RMK AO2 RAE44 SLP155 P0009 60049 T01940183 51017





000
SAUS44 KLZK 281450
MTRMWT
SPECI KMWT 281448Z AUTO 00000KT 3SM BR FEW022 BKN036 OVC095 19/18
A3001 RMK AO2 RAE44 P0009





000
SAUS44 KLZK 281441
MTRMWT
SPECI KMWT 281440Z AUTO 00000KT 3SM -RA BR BKN022 BKN046 OVC095
19/18 A3001 RMK AO2 P0008 T01890183





000
SAUS44 KLZK 281354
MTRMWT
METAR KMWT 281353Z AUTO 00000KT 1 1/4SM -RA BR OVC017 19/18 A2999
RMK AO2 SLP147 P0012 T01890183





000
SAUS44 KLZK 281337
MTRMWT
SPECI KMWT 281336Z AUTO 00000KT 1 3/4SM -RA BR BKN015 OVC021 19/18
A2999 RMK AO2 P0011 T01890183





000
SAUS44 KLZK 281322
MTRMWT
SPECI KMWT 281321Z AUTO 00000KT 1SM -RA BR BKN014 OVC023 19/18 A2997
RMK AO2 P0008 T01890183





000
SAUS44 KLZK 281311
MTRMWT
SPECI KMWT 281310Z AUTO 00000KT 1 1/2SM RA BR BKN016 OVC023 19/18
A2996 RMK AO2 P0004 T01890183





000
SAUS44 KLZK 281304
MTRMWT
SPECI KMWT 281303Z AUTO 00000KT 3SM -RA BR BKN017 OVC024 19/18 A2996
RMK AO2 P0003 T01890183





000
SAUS44 KLZK 281254
MTRMWT
METAR KMWT 281253Z AUTO 00000KT 1SM +RA BR FEW012 BKN019 OVC025
19/18 A2996 RMK AO2 SLP138 P0028 T01890183





000
SAUS44 KLZK 281235
MTRMWT
SPECI KMWT 281233Z AUTO 00000KT 1 3/4SM -RA BR FEW010 SCT019 OVC024
19/18 A2996 RMK AO2 P0016 T01890183





000
SAUS44 KLZK 281226
MTRMWT
SPECI KMWT 281225Z AUTO 00000KT 3SM -RA BR FEW007 BKN025 OVC033
19/18 A2996 RMK AO2 P0016 T01890183





000
SAUS44 KLZK 281223
MTRMWT
SPECI KMWT 281222Z AUTO 00000KT 2SM -RA BR SCT010 BKN025 OVC033
19/18 A2996 RMK AO2 P0016 T01890183





000
SAUS44 KLZK 281209
MTRMWT
SPECI KMWT 281208Z AUTO 00000KT 3SM -RA BR BKN010 BKN033 OVC048
19/18 A2996 RMK AO2 P0010 T01940178





000
SAUS44 KLZK 281201
MTRMWT
SPECI KMWT 281200Z AUTO 00000KT 1 3/4SM +RA BR FEW010 BKN041 OVC050
19/18 A2995 RMK AO2 P0008 T01940178





000
SAUS44 KLZK 281154
MTRMWT
METAR KMWT 281153Z AUTO 00000KT 3SM -RA BR FEW015 BKN045 OVC085
19/18 A2995 RMK AO2 SLP133 P0032 60037 70037 T01940178 10228 20194
50013





000
SAUS44 KLZK 281138
MTRMWT
SPECI KMWT 281137Z AUTO 00000KT 1 3/4SM +RA BR FEW017 BKN042 OVC049
19/18 A2995 RMK AO2 P0020 T01940183





000
SAUS44 KLZK 281133
MTRMWT
SPECI KMWT 281132Z AUTO 00000KT 3SM RA BR FEW012 BKN045 OVC090 19/18
A2995 RMK AO2 P0018 T01940183





000
SAUS44 KLZK 281113
MTRMWT
SPECI KMWT 281112Z AUTO VRB03KT 1 3/4SM RA BR FEW019 FEW037 OVC045
19/18 A2995 RMK AO2 VIS 3/4V4 P0005 T01940183





000
SAUS44 KLZK 281101
MTRMWT
SPECI KMWT 281101Z AUTO VRB03KT 4SM RA BR SCT042 OVC050 20/18 A2995
RMK AO2 P0001 T02000178





    US Dept of Commerce
    National Oceanic and Atmospheric Administration
    National Weather Service
    1325 East West Highway
    Silver Spring, MD 20910
    Page Author: NWS Internet Services Team
Disclaimer
Information Quality
Credits
Glossary
Privacy Policy
Freedom of Information Act (FOIA)
About Us
Career Opportunities